createdAt,value
2023-04-29T00:00:19.609Z,10.10
2023-04-29T00:02:55.888Z,10.00
2023-04-29T00:05:28.048Z,9.95
2023-04-29T00:08:00.096Z,10.82
2023-04-29T00:10:31.909Z,10.95
2023-04-29T00:13:03.643Z,11.23
2023-04-29T00:15:38.030Z,10.63
2023-04-29T00:18:10.526Z,11.43
2023-04-29T00:20:47.659Z,11.07
2023-04-29T00:23:19.969Z,11.20
2023-04-29T00:25:53.576Z,12.88
2023-04-29T00:28:28.435Z,11.88
2023-04-29T00:31:04.719Z,12.10
2023-04-29T00:33:40.779Z,12.50
2023-04-29T00:36:12.711Z,11.32
2023-04-29T00:38:44.563Z,11.10
2023-04-29T00:41:21.224Z,11.55
2023-04-29T00:43:53.077Z,11.00
2023-04-29T00:46:27.940Z,11.27
2023-04-29T00:49:00.511Z,12.60
2023-04-29T00:51:33.387Z,10.65
2023-04-29T00:54:05.765Z,11.23
2023-04-29T00:56:42.022Z,11.27
2023-04-29T00:59:15.525Z,11.07
2023-04-29T01:01:48.226Z,11.50
2023-04-29T01:04:20.176Z,12.25
2023-04-29T01:07:17.087Z,12.30
2023-04-29T01:10:27.180Z,11.70
2023-04-29T01:13:13.475Z,11.60
2023-04-29T01:16:02.367Z,12.00
2023-04-29T01:18:39.346Z,11.98
2023-04-29T01:21:12.471Z,11.65
2023-04-29T01:23:47.950Z,11.55
2023-04-29T01:26:19.754Z,11.65
2023-04-29T01:29:26.081Z,11.40
2023-04-29T01:32:14.449Z,11.50
2023-04-29T01:35:11.552Z,11.90
2023-04-29T01:37:56.027Z,11.90
2023-04-29T01:40:46.211Z,12.07
2023-04-29T01:43:32.832Z,11.63
2023-04-29T01:46:17.288Z,12.52
2023-04-29T01:48:52.546Z,12.13
2023-04-29T01:51:52.726Z,12.07
2023-04-29T01:54:25.829Z,12.13
2023-04-29T01:56:58.734Z,12.07
2023-04-29T01:59:36.494Z,12.45
2023-04-29T02:02:31.593Z,11.55
2023-04-29T02:05:13.599Z,12.38
2023-04-29T02:07:56.432Z,12.68
2023-04-29T02:10:28.528Z,14.00
2023-04-29T02:13:13.638Z,12.90
2023-04-29T02:15:46.483Z,13.35
2023-04-29T02:18:20.070Z,13.93
2023-04-29T02:21:00.892Z,13.55
2023-04-29T02:23:35.963Z,13.05
2023-04-29T02:26:09.366Z,13.23
2023-04-29T02:28:41.189Z,13.30
2023-04-29T02:31:13.729Z,13.32
2023-04-29T02:33:45.430Z,14.15
2023-04-29T02:36:18.244Z,13.85
2023-04-29T02:38:51.481Z,13.02
2023-04-29T02:41:23.674Z,13.60
2023-04-29T02:44:00.813Z,14.02
2023-04-29T02:46:33.663Z,12.90
2023-04-29T02:49:08.432Z,14.27
2023-04-29T02:51:41.379Z,13.70
2023-04-29T02:54:13.583Z,15.93
2023-04-29T02:56:45.358Z,15.32
2023-04-29T02:59:17.166Z,15.20
2023-04-29T03:01:49.163Z,16.10
2023-04-29T03:04:21.238Z,16.95
2023-04-29T03:06:54.769Z,15.40
2023-04-29T03:09:26.732Z,15.35
2023-04-29T03:11:58.460Z,16.50
2023-04-29T03:14:30.242Z,16.17
2023-04-29T03:17:03.209Z,15.02
2023-04-29T03:19:35.256Z,15.40
2023-04-29T03:22:08.275Z,15.68
2023-04-29T03:24:40.520Z,15.65
2023-04-29T03:27:13.394Z,16.35
2023-04-29T03:29:46.616Z,16.60
2023-04-29T03:32:18.586Z,15.60
2023-04-29T03:34:51.183Z,15.93
2023-04-29T03:37:53.606Z,16.20
2023-04-29T03:40:29.237Z,16.25
2023-04-29T03:43:01.149Z,16.38
2023-04-29T03:45:33.340Z,16.05
2023-04-29T03:48:06.300Z,16.63
2023-04-29T03:50:41.131Z,16.83
2023-04-29T03:53:15.216Z,17.10
2023-04-29T03:55:49.959Z,16.27
2023-04-29T03:58:23.731Z,16.15
2023-04-29T04:03:36.216Z,17.13
2023-04-29T04:06:08.340Z,16.63
2023-04-29T04:08:41.336Z,17.17
2023-04-29T04:11:27.735Z,16.52
2023-04-29T04:14:06.269Z,16.60
2023-04-29T04:16:43.136Z,16.17
2023-04-29T04:19:16.438Z,17.02
2023-04-29T04:21:51.067Z,16.27
2023-04-29T04:24:23.813Z,16.95
2023-04-29T04:26:55.853Z,16.85
2023-04-29T04:29:33.858Z,19.85
2023-04-29T04:32:15.509Z,17.60
2023-04-29T04:34:47.300Z,17.35
2023-04-29T04:37:19.971Z,19.55
2023-04-29T04:39:56.544Z,18.58
2023-04-29T04:42:35.849Z,19.40
2023-04-29T04:45:11.382Z,21.02
2023-04-29T04:47:55.822Z,21.37
2023-04-29T04:50:32.631Z,22.58
2023-04-29T04:53:05.552Z,24.90
2023-04-29T04:56:03.935Z,24.83
2023-04-29T04:58:37.033Z,22.98
2023-04-29T05:01:09.566Z,20.73
2023-04-29T05:03:41.606Z,18.23
2023-04-29T05:06:13.879Z,18.27
2023-04-29T05:08:49.779Z,20.70
2023-04-29T05:11:23.753Z,20.35
2023-04-29T05:14:14.772Z,19.90
2023-04-29T05:16:47.019Z,19.70
2023-04-29T05:19:22.488Z,21.08
2023-04-29T05:21:57.676Z,21.63
2023-04-29T05:24:30.450Z,23.33
2023-04-29T05:27:23.616Z,22.67
2023-04-29T05:29:55.865Z,24.58
2023-04-29T05:32:27.957Z,23.90
2023-04-29T05:35:04.192Z,26.08
2023-04-29T05:37:37.265Z,25.02
2023-04-29T05:40:20.412Z,25.13
2023-04-29T05:42:53.743Z,26.15
2023-04-29T05:45:26.603Z,26.05
2023-04-29T05:48:01.257Z,25.70
2023-04-29T05:50:35.295Z,24.30
2023-04-29T05:53:10.064Z,23.35
2023-04-29T05:55:44.994Z,22.23
2023-04-29T05:58:18.341Z,20.48
2023-04-29T06:00:50.122Z,17.15
2023-04-29T06:03:29.788Z,16.25
2023-04-29T06:06:28.940Z,15.63
2023-04-29T06:09:28.213Z,15.32
2023-04-29T06:12:09.077Z,15.75
2023-04-29T06:14:40.761Z,16.02
2023-04-29T06:17:15.178Z,15.00
2023-04-29T06:19:47.568Z,14.43
2023-04-29T06:22:19.301Z,14.38
2023-04-29T06:24:54.966Z,15.02
2023-04-29T06:27:51.216Z,14.52
2023-04-29T06:30:27.271Z,13.18
2023-04-29T06:32:59.941Z,14.80
2023-04-29T06:35:31.761Z,14.15
2023-04-29T06:38:38.772Z,14.32
2023-04-29T06:41:30.457Z,12.98
2023-04-29T06:44:27.825Z,13.30
2023-04-29T06:47:29.442Z,13.52
2023-04-29T06:50:17.784Z,13.10
2023-04-29T06:52:49.510Z,12.55
2023-04-29T06:55:21.663Z,11.65
2023-04-29T06:57:54.180Z,11.02
2023-04-29T07:00:28.982Z,9.98
2023-04-29T07:03:03.112Z,8.93
2023-04-29T07:05:35.080Z,8.38
2023-04-29T07:08:07.935Z,9.10
2023-04-29T07:10:40.116Z,8.43
2023-04-29T07:13:12.135Z,8.77
2023-04-29T07:15:43.882Z,8.15
2023-04-29T07:18:15.598Z,7.65
2023-04-29T07:20:52.943Z,8.57
2023-04-29T07:23:27.579Z,7.85
2023-04-29T07:25:59.337Z,7.72
2023-04-29T07:28:31.111Z,6.60
2023-04-29T07:31:02.949Z,7.70
2023-04-29T07:33:35.867Z,6.72
2023-04-29T07:36:07.964Z,7.40
2023-04-29T07:38:40.571Z,7.20
2023-04-29T07:41:12.653Z,6.70
2023-04-29T07:43:45.664Z,5.68
2023-04-29T07:46:25.492Z,5.32
2023-04-29T07:48:58.349Z,4.68
2023-04-29T07:51:30.082Z,4.47
2023-04-29T07:54:01.771Z,3.63
2023-04-29T07:56:33.973Z,3.58
2023-04-29T07:59:05.678Z,4.05
2023-04-29T08:01:37.625Z,3.50
2023-04-29T08:04:09.448Z,3.72
2023-04-29T08:06:51.075Z,2.95
2023-04-29T08:09:22.882Z,3.45
2023-04-29T08:11:54.667Z,2.80
2023-04-29T08:14:26.747Z,3.22
2023-04-29T08:16:59.330Z,2.83
2023-04-29T08:19:34.241Z,2.70
2023-04-29T08:22:06.520Z,2.35
2023-04-29T08:24:38.307Z,2.53
2023-04-29T08:27:10.135Z,2.80
2023-04-29T08:29:47.224Z,2.80
2023-04-29T08:32:18.968Z,2.35
2023-04-29T08:34:50.852Z,2.53
2023-04-29T08:37:22.777Z,2.40
2023-04-29T08:39:54.558Z,2.53
2023-04-29T08:42:37.008Z,2.90
2023-04-29T08:45:15.823Z,2.75
2023-04-29T08:47:49.659Z,2.40
2023-04-29T08:50:24.057Z,2.85
2023-04-29T08:55:27.988Z,2.90
2023-04-29T08:58:03.059Z,3.00
2023-04-29T09:00:35.901Z,2.83
2023-04-29T09:03:25.441Z,2.92
2023-04-29T09:06:00.982Z,4.22
2023-04-29T09:08:33.498Z,3.88
2023-04-29T09:11:11.291Z,4.00
2023-04-29T09:13:44.123Z,3.97
2023-04-29T09:16:16.021Z,4.43
2023-04-29T09:18:49.054Z,4.10
2023-04-29T09:21:27.366Z,3.92
2023-04-29T09:24:01.650Z,3.90
2023-04-29T09:26:43.356Z,4.80
2023-04-29T09:29:16.490Z,4.90
2023-04-29T09:31:49.537Z,5.35
2023-04-29T09:34:39.677Z,6.30
2023-04-29T09:37:28.111Z,7.05
2023-04-29T09:40:00.156Z,7.10
2023-04-29T09:42:43.724Z,7.93
2023-04-29T09:45:37.922Z,7.20
2023-04-29T09:48:13.627Z,5.78
2023-04-29T09:51:02.237Z,4.65
2023-04-29T09:53:37.996Z,5.63
2023-04-29T09:56:09.882Z,4.72
2023-04-29T09:58:41.595Z,4.03
2023-04-29T10:01:14.439Z,4.00
2023-04-29T10:03:49.195Z,3.90
2023-04-29T10:08:56.238Z,4.30
2023-04-29T10:11:31.538Z,3.40
2023-04-29T10:14:05.594Z,3.60
2023-04-29T10:17:08.601Z,2.50
2023-04-29T10:19:57.333Z,2.60
2023-04-29T10:22:47.920Z,2.25
2023-04-29T10:25:21.825Z,2.20
2023-04-29T10:27:59.507Z,1.75
2023-04-29T10:30:32.621Z,2.05
2023-04-29T10:33:06.481Z,1.80
2023-04-29T10:35:38.673Z,1.75
2023-04-29T10:38:41.224Z,2.35
2023-04-29T10:41:26.847Z,2.35
2023-04-29T10:44:00.635Z,2.20
2023-04-29T10:46:33.702Z,1.90
2023-04-29T10:49:07.129Z,2.22
2023-04-29T10:51:45.901Z,1.90
2023-04-29T10:54:21.211Z,2.05
2023-04-29T10:56:54.347Z,1.80
2023-04-29T10:59:46.470Z,1.70
2023-04-29T11:02:20.074Z,2.10
2023-04-29T11:05:12.139Z,2.03
2023-04-29T11:07:50.379Z,2.22
2023-04-29T11:10:39.760Z,2.75
2023-04-29T11:13:29.450Z,2.40
2023-04-29T11:16:09.349Z,2.20
2023-04-29T11:19:09.642Z,2.10
2023-04-29T11:21:42.773Z,1.50
2023-04-29T11:24:16.353Z,1.90
2023-04-29T11:26:49.139Z,1.70
2023-04-29T11:29:22.685Z,2.00
2023-04-29T11:32:02.215Z,1.88
2023-04-29T11:34:37.172Z,2.28
2023-04-29T11:37:09.586Z,2.42
2023-04-29T11:39:52.357Z,2.72
2023-04-29T11:42:30.916Z,4.43
2023-04-29T11:45:02.687Z,2.40
2023-04-29T11:47:34.462Z,2.55
2023-04-29T11:50:08.928Z,2.70
2023-04-29T11:55:14.657Z,2.75
2023-04-29T11:57:49.924Z,2.67
2023-04-29T12:00:24.750Z,3.10
2023-04-29T12:02:56.582Z,2.80
2023-04-29T12:05:28.557Z,3.45
2023-04-29T12:08:00.507Z,2.78
2023-04-29T12:10:32.637Z,3.90
2023-04-29T12:13:04.609Z,3.35
2023-04-29T12:15:37.407Z,2.80
2023-04-29T12:20:45.103Z,3.20
2023-04-29T12:23:19.703Z,3.10
2023-04-29T12:25:53.814Z,2.75
2023-04-29T12:28:26.273Z,2.83
2023-04-29T12:30:59.696Z,2.92
2023-04-29T12:33:31.541Z,2.22
2023-04-29T12:36:03.665Z,3.03
2023-04-29T12:38:43.764Z,2.22
2023-04-29T12:41:18.683Z,2.30
2023-04-29T12:43:51.427Z,2.00
2023-04-29T12:46:23.748Z,2.10
2023-04-29T12:48:55.650Z,1.92
2023-04-29T12:51:27.477Z,2.20
2023-04-29T12:54:01.946Z,2.22
2023-04-29T12:56:34.073Z,2.08
2023-04-29T12:59:13.318Z,1.70
2023-04-29T13:01:45.596Z,1.48
2023-04-29T13:04:17.910Z,1.65
2023-04-29T13:06:54.257Z,1.38
2023-04-29T13:09:29.211Z,1.10
2023-04-29T13:12:03.314Z,1.00
2023-04-29T13:14:35.096Z,1.00
2023-04-29T13:17:07.320Z,0.90
2023-04-29T13:19:48.150Z,1.08
2023-04-29T13:22:23.145Z,1.20
2023-04-29T13:24:55.300Z,1.10
2023-04-29T13:27:27.379Z,1.30
2023-04-29T13:29:59.134Z,1.23
2023-04-29T13:32:43.196Z,1.27
2023-04-29T13:35:16.824Z,1.40
2023-04-29T13:37:49.411Z,1.77
2023-04-29T13:40:21.642Z,1.50
2023-04-29T13:43:02.555Z,1.50
2023-04-29T13:45:48.348Z,1.70
2023-04-29T13:48:44.253Z,1.55
2023-04-29T13:59:40.010Z,2.08
2023-04-29T14:02:23.248Z,2.38
2023-04-29T14:04:57.212Z,2.83
2023-04-29T14:07:29.233Z,2.50
2023-04-29T14:10:01.088Z,2.58
2023-04-29T14:12:32.856Z,3.50
2023-04-29T14:15:05.793Z,3.20
2023-04-29T14:17:37.568Z,3.70
2023-04-29T14:20:09.694Z,3.63
2023-04-29T14:22:41.459Z,3.42
2023-04-29T14:25:13.555Z,3.50
2023-04-29T14:27:45.371Z,3.30
2023-04-29T14:30:17.115Z,3.90
2023-04-29T14:32:48.941Z,3.67
2023-04-29T14:35:20.643Z,3.75
2023-04-29T14:37:52.628Z,3.10
2023-04-29T14:40:24.377Z,2.70
2023-04-29T14:42:56.179Z,2.88
2023-04-29T14:45:28.261Z,5.43
2023-04-29T14:48:00.081Z,2.67
2023-04-29T14:50:31.855Z,2.85
2023-04-29T14:53:04.282Z,2.50
2023-04-29T14:55:35.995Z,3.00
2023-04-29T14:58:09.433Z,2.85
2023-04-29T15:03:22.137Z,3.10
2023-04-29T15:05:55.146Z,3.30
2023-04-29T15:08:27.614Z,3.30
2023-04-29T15:10:59.436Z,3.28
2023-04-29T15:13:32.134Z,3.20
2023-04-29T15:16:07.417Z,3.63
2023-04-29T15:18:39.313Z,3.65
2023-04-29T15:21:11.456Z,3.55
2023-04-29T15:23:43.404Z,4.00
2023-04-29T15:26:15.126Z,3.60
2023-04-29T15:28:46.955Z,3.78
2023-04-29T15:31:18.758Z,3.60
2023-04-29T15:33:55.660Z,4.28
2023-04-29T15:36:32.693Z,3.47
2023-04-29T15:39:04.670Z,3.28
2023-04-29T15:41:37.438Z,3.45
2023-04-29T15:44:09.126Z,3.60
2023-04-29T15:46:43.663Z,3.65
2023-04-29T15:51:46.957Z,3.00
2023-04-29T15:54:18.932Z,4.32
2023-04-29T15:56:50.936Z,3.38
2023-04-29T15:59:22.691Z,3.28
2023-04-29T16:01:54.406Z,3.00
2023-04-29T16:04:26.229Z,3.13
2023-04-29T16:06:58.251Z,3.20
2023-04-29T16:09:30.037Z,3.10
2023-04-29T16:12:02.285Z,3.45
2023-04-29T16:14:34.154Z,3.33
2023-04-29T16:17:06.194Z,3.40
2023-04-29T16:19:38.108Z,2.97
2023-04-29T16:22:09.812Z,3.20
2023-04-29T16:24:41.752Z,2.90
2023-04-29T16:27:13.876Z,2.63
2023-04-29T16:29:45.721Z,2.40
2023-04-29T16:32:17.763Z,2.70
2023-04-29T16:34:49.547Z,2.45
2023-04-29T16:37:22.460Z,2.85
2023-04-29T16:39:54.432Z,2.80
2023-04-29T16:42:26.445Z,2.67
2023-04-29T16:44:58.301Z,2.92
2023-04-29T16:47:30.083Z,3.15
2023-04-29T16:50:01.891Z,2.40
2023-04-29T16:52:34.189Z,2.80
2023-04-29T16:55:11.068Z,3.47
2023-04-29T16:57:43.027Z,3.22
2023-04-29T17:00:14.887Z,3.78
2023-04-29T17:02:47.972Z,3.40
2023-04-29T17:05:21.653Z,3.70
2023-04-29T17:07:54.430Z,3.88
2023-04-29T17:10:27.068Z,4.93
2023-04-29T17:12:58.945Z,4.07
2023-04-29T17:15:31.068Z,5.10
2023-04-29T17:18:03.127Z,4.93
2023-04-29T17:20:35.281Z,5.10
2023-04-29T17:23:07.093Z,5.38
2023-04-29T17:25:39.008Z,4.72
2023-04-29T17:28:11.147Z,5.05
2023-04-29T17:30:42.990Z,5.18
2023-04-29T17:33:14.870Z,5.75
2023-04-29T17:35:46.921Z,5.55
2023-04-29T17:38:18.648Z,5.55
2023-04-29T17:40:50.466Z,5.85
2023-04-29T17:43:22.728Z,5.38
2023-04-29T17:45:58.636Z,6.15
2023-04-29T17:48:32.276Z,6.00
2023-04-29T17:51:04.459Z,6.20
2023-04-29T17:53:36.182Z,7.15
2023-04-29T17:56:07.996Z,6.78
2023-04-29T17:58:39.804Z,6.78
2023-04-29T18:01:11.617Z,6.65
2023-04-29T18:03:43.763Z,6.90
2023-04-29T18:06:15.746Z,6.25
2023-04-29T18:08:47.516Z,6.85
2023-04-29T18:11:19.352Z,6.82
2023-04-29T18:13:53.836Z,7.88
2023-04-29T18:16:27.353Z,8.13
2023-04-29T18:18:59.189Z,7.50
2023-04-29T18:21:31.922Z,7.43
2023-04-29T18:24:04.211Z,7.13
2023-04-29T18:26:36.007Z,7.80
2023-04-29T18:29:07.876Z,7.82
2023-04-29T18:31:39.697Z,7.68
2023-04-29T18:34:11.415Z,9.23
2023-04-29T18:36:43.616Z,7.18
2023-04-29T18:39:15.582Z,8.65
2023-04-29T18:41:48.645Z,8.50
2023-04-29T18:44:20.530Z,8.60
2023-04-29T18:46:53.184Z,8.32
2023-04-29T18:49:25.056Z,8.68
2023-04-29T18:51:56.900Z,9.32
2023-04-29T18:54:28.650Z,9.52
2023-04-29T18:57:03.927Z,8.75
2023-04-29T18:59:38.036Z,8.95
2023-04-29T19:02:09.818Z,8.88
2023-04-29T19:04:41.768Z,9.02
2023-04-29T19:07:13.829Z,8.90
2023-04-29T19:09:45.642Z,8.60
2023-04-29T19:12:19.448Z,8.68
2023-04-29T19:14:51.207Z,8.18
2023-04-29T19:17:23.165Z,8.82
2023-04-29T19:19:55.065Z,8.52
2023-04-29T19:22:28.012Z,8.70
2023-04-29T19:24:59.763Z,8.85
2023-04-29T19:27:31.516Z,9.18
2023-04-29T19:30:03.950Z,8.95
2023-04-29T19:32:35.827Z,9.40
2023-04-29T19:35:07.775Z,8.57
2023-04-29T19:37:40.570Z,8.80
2023-04-29T19:40:12.451Z,9.02
2023-04-29T19:42:44.719Z,8.38
2023-04-29T19:45:16.574Z,8.85
2023-04-29T19:47:49.970Z,9.43
2023-04-29T19:50:22.729Z,9.50
2023-04-29T19:52:55.046Z,8.63
2023-04-29T19:55:27.288Z,7.97
2023-04-29T19:57:59.186Z,9.63
2023-04-29T20:00:31.564Z,9.90
2023-04-29T20:03:03.773Z,9.55
2023-04-29T20:05:35.568Z,9.15
2023-04-29T20:08:07.668Z,10.07
2023-04-29T20:10:39.474Z,9.57
2023-04-29T20:13:11.485Z,8.77
2023-04-29T20:15:43.296Z,9.68
2023-04-29T20:18:15.428Z,9.90
2023-04-29T20:20:50.754Z,9.27
2023-04-29T20:23:22.775Z,9.85
2023-04-29T20:25:54.685Z,10.10
2023-04-29T20:28:26.648Z,10.25
2023-04-29T20:30:59.735Z,10.35
2023-04-29T20:33:31.627Z,9.55
2023-04-29T20:36:06.660Z,10.25
2023-04-29T20:38:41.256Z,10.00
2023-04-29T20:41:17.428Z,10.10
2023-04-29T20:43:49.194Z,9.55
2023-04-29T20:46:23.565Z,10.98
2023-04-29T20:48:57.094Z,11.35
2023-04-29T20:51:29.539Z,10.80
2023-04-29T20:54:01.375Z,9.77
2023-04-29T20:56:35.939Z,9.88
2023-04-29T20:59:07.759Z,9.65
2023-04-29T21:01:39.553Z,10.70
2023-04-29T21:04:11.585Z,9.25
2023-04-29T21:06:43.692Z,9.95
2023-04-29T21:09:16.222Z,9.73
2023-04-29T21:11:48.295Z,10.30
2023-04-29T21:14:20.254Z,10.75
2023-04-29T21:16:52.457Z,9.88
2023-04-29T21:19:24.610Z,9.85
2023-04-29T21:21:56.527Z,10.55
2023-04-29T21:24:28.746Z,9.45
2023-04-29T21:27:00.587Z,9.50
2023-04-29T21:29:34.674Z,9.43
2023-04-29T21:32:07.848Z,9.50
2023-04-29T21:34:39.694Z,9.07
2023-04-29T21:37:12.425Z,8.90
2023-04-29T21:39:44.245Z,8.73
2023-04-29T21:42:21.193Z,9.02
2023-04-29T21:44:59.122Z,9.10
2023-04-29T21:47:31.050Z,9.23
2023-04-29T21:50:02.894Z,9.73
2023-04-29T21:52:35.322Z,9.35
2023-04-29T21:55:07.379Z,9.10
2023-04-29T22:03:10.256Z,9.35
2023-04-29T22:05:42.260Z,9.63
2023-04-29T22:08:14.113Z,9.95
2023-04-29T22:10:46.047Z,9.27
2023-04-29T22:13:17.902Z,9.75
2023-04-29T22:15:50.900Z,10.02
2023-04-29T22:18:22.698Z,9.68
2023-04-29T22:20:54.421Z,8.65
2023-04-29T22:23:26.227Z,8.82
2023-04-29T22:25:58.234Z,9.90
2023-04-29T22:28:30.053Z,9.98
2023-04-29T22:31:01.885Z,9.02
2023-04-29T22:33:35.020Z,8.43
2023-04-29T22:36:09.910Z,9.18
2023-04-29T22:38:41.711Z,9.05
2023-04-29T22:41:14.177Z,8.88
2023-04-29T22:43:46.143Z,8.60
2023-04-29T22:46:18.090Z,8.65
2023-04-29T22:48:49.985Z,8.35
2023-04-29T22:51:21.897Z,8.80
2023-04-29T22:53:53.632Z,9.05
2023-04-29T22:56:25.450Z,8.80
2023-04-29T22:58:57.309Z,8.68
2023-04-29T23:01:29.194Z,9.68
2023-04-29T23:04:01.027Z,8.88
2023-04-29T23:06:35.992Z,9.20
2023-04-29T23:09:11.819Z,9.38
2023-04-29T23:11:43.678Z,9.15
2023-04-29T23:14:15.545Z,10.18
2023-04-29T23:16:47.397Z,8.93
2023-04-29T23:19:19.230Z,9.05
2023-04-29T23:21:53.069Z,9.38
2023-04-29T23:24:26.368Z,9.43
2023-04-29T23:26:58.338Z,9.35
2023-04-29T23:29:36.546Z,9.02
2023-04-29T23:32:08.386Z,9.85
2023-04-29T23:34:40.323Z,9.30
2023-04-29T23:37:12.255Z,10.40
2023-04-29T23:39:44.047Z,9.65
2023-04-29T23:42:18.819Z,10.02
2023-04-29T23:44:50.900Z,9.95
2023-04-29T23:47:22.785Z,10.25
2023-04-29T23:49:54.895Z,9.73
2023-04-29T23:52:26.970Z,9.73
2023-04-29T23:54:58.940Z,9.20
2023-04-29T23:57:30.807Z,9.30
